createdAt,value
2019-06-01T00:01:26.271Z,11.20
2019-06-01T00:03:59.245Z,13.45
2019-06-01T00:06:32.124Z,14.07
2019-06-01T00:09:04.607Z,11.03
2019-06-01T00:11:36.356Z,13.25
2019-06-01T00:14:09.532Z,11.65
2019-06-01T00:16:42.005Z,11.85
2019-06-01T00:19:15.328Z,10.58
2019-06-01T00:21:54.319Z,14.33
2019-06-01T00:24:27.676Z,14.63
2019-06-01T00:26:59.783Z,14.00
2019-06-01T00:29:31.651Z,8.68
2019-06-01T00:32:03.691Z,14.38
2019-06-01T00:34:35.136Z,11.73
2019-06-01T00:37:07.153Z,13.28
2019-06-01T00:39:38.556Z,16.35
2019-06-01T00:42:10.208Z,12.40
2019-06-01T00:44:42.097Z,14.93
2019-06-01T00:47:15.931Z,12.58
2019-06-01T00:49:51.102Z,13.68
2019-06-01T00:52:23.202Z,13.15
2019-06-01T00:54:58.311Z,13.20
2019-06-01T00:57:32.137Z,12.40
2019-06-01T01:00:04.247Z,14.47
2019-06-01T01:02:36.813Z,11.22
2019-06-01T01:05:17.515Z,13.10
2019-06-01T01:07:50.635Z,12.70
2019-06-01T01:10:22.457Z,14.38
2019-06-01T01:13:12.896Z,14.28
2019-06-01T01:15:45.240Z,12.70
2019-06-01T01:18:16.735Z,14.93
2019-06-01T01:20:48.176Z,16.62
2019-06-01T01:23:19.757Z,11.15
2019-06-01T01:25:52.547Z,18.90
2019-06-01T01:28:24.131Z,12.13
2019-06-01T01:31:08.940Z,12.93
2019-06-01T01:33:29.131Z,14.65
2019-06-01T01:36:00.987Z,14.05
2019-06-01T01:38:32.396Z,12.47
2019-06-01T01:41:03.787Z,13.83
2019-06-01T01:43:35.635Z,13.45
2019-06-01T01:46:07.242Z,16.02
2019-06-01T01:48:38.737Z,15.15
2019-06-01T01:51:10.541Z,17.77
2019-06-01T01:53:41.935Z,17.62
2019-06-01T01:56:14.325Z,16.10
2019-06-01T01:58:45.808Z,16.93
2019-06-01T02:01:22.733Z,17.45
2019-06-01T02:03:51.774Z,18.42
2019-06-01T02:06:24.269Z,20.80
2019-06-01T02:08:55.551Z,20.82
2019-06-01T02:11:27.001Z,20.92
2019-06-01T02:13:59.932Z,17.98
2019-06-01T02:16:32.601Z,18.67
2019-06-01T02:19:07.123Z,19.30
2019-06-01T02:21:38.652Z,22.10
2019-06-01T02:24:10.028Z,21.70
2019-06-01T02:26:41.441Z,21.80
2019-06-01T02:29:12.998Z,20.62
2019-06-01T02:31:44.516Z,20.30
2019-06-01T02:34:15.912Z,21.95
2019-06-01T02:36:47.382Z,19.40
2019-06-01T02:39:19.009Z,16.90
2019-06-01T02:41:50.721Z,19.85
2019-06-01T02:44:23.146Z,20.77
2019-06-01T02:46:55.401Z,19.17
2019-06-01T02:49:27.329Z,24.02
2019-06-01T02:51:59.295Z,24.77
2019-06-01T02:54:31.377Z,21.93
2019-06-01T02:57:04.109Z,22.30
2019-06-01T02:59:35.689Z,23.40
2019-06-01T03:02:12.248Z,16.35
2019-06-01T03:04:41.084Z,19.07
2019-06-01T03:07:15.208Z,24.20
2019-06-01T03:09:49.692Z,21.27
2019-06-01T03:12:22.545Z,19.20
2019-06-01T03:14:58.234Z,23.62
2019-06-01T03:17:32.903Z,22.42
2019-06-01T03:20:06.289Z,21.60
2019-06-01T03:22:40.818Z,22.45
2019-06-01T03:25:13.448Z,20.23
2019-06-01T03:27:47.420Z,22.05
2019-06-01T03:30:27.759Z,20.65
2019-06-01T03:33:01.138Z,21.90
2019-06-01T03:35:32.809Z,22.07
2019-06-01T03:38:04.950Z,21.82
2019-06-01T03:40:36.439Z,21.30
2019-06-01T03:43:09.356Z,19.77
2019-06-01T03:45:40.873Z,21.62
2019-06-01T03:48:12.977Z,23.40
2019-06-01T03:50:44.522Z,19.35
2019-06-01T03:53:16.853Z,24.77
2019-06-01T03:55:48.257Z,23.27
2019-06-01T03:58:19.653Z,16.32
2019-06-01T04:00:51.126Z,24.43
2019-06-01T04:03:22.867Z,19.25
2019-06-01T04:05:54.287Z,20.97
2019-06-01T04:08:26.278Z,22.65
2019-06-01T04:10:57.690Z,21.50
2019-06-01T04:13:29.076Z,23.50
2019-06-01T04:16:01.657Z,20.25
2019-06-01T04:18:33.253Z,20.48
2019-06-01T04:21:05.914Z,23.40
2019-06-01T04:23:38.025Z,24.20
2019-06-01T04:26:10.392Z,22.70
2019-06-01T04:28:41.972Z,22.58
2019-06-01T04:31:13.461Z,22.58
2019-06-01T04:33:44.923Z,21.75
2019-06-01T04:36:16.435Z,23.25
2019-06-01T04:38:47.813Z,25.05
2019-06-01T04:41:19.405Z,17.52
2019-06-01T04:43:50.896Z,20.82
2019-06-01T04:46:22.507Z,20.70
2019-06-01T04:48:54.028Z,17.73
2019-06-01T04:51:25.522Z,14.53
2019-06-01T04:53:56.902Z,22.07
2019-06-01T04:56:28.308Z,21.37
2019-06-01T04:58:59.878Z,21.05
2019-06-01T05:01:31.346Z,14.55
2019-06-01T05:04:02.834Z,17.80
2019-06-01T05:06:34.215Z,19.20
2019-06-01T05:09:09.288Z,23.87
2019-06-01T05:11:43.303Z,20.90
2019-06-01T05:14:16.563Z,19.20
2019-06-01T05:16:48.219Z,17.42
2019-06-01T05:19:19.727Z,19.87
2019-06-01T05:21:51.072Z,19.17
2019-06-01T05:24:22.476Z,20.68
2019-06-01T05:26:54.452Z,19.57
2019-06-01T05:29:26.111Z,15.43
2019-06-01T05:31:58.037Z,13.80
2019-06-01T05:34:29.404Z,19.90
2019-06-01T05:37:00.744Z,17.00
2019-06-01T05:39:32.180Z,14.28
2019-06-01T05:42:04.082Z,18.90
2019-06-01T05:44:35.852Z,19.32
2019-06-01T05:47:07.317Z,13.53
2019-06-01T05:49:38.737Z,16.30
2019-06-01T05:52:10.476Z,20.75
2019-06-01T05:54:42.250Z,16.20
2019-06-01T05:57:14.769Z,19.98
2019-06-01T06:00:52.487Z,20.57
2019-06-01T06:03:39.635Z,17.02
2019-06-01T06:05:57.516Z,16.40
2019-06-01T06:08:29.103Z,14.05
2019-06-01T06:11:01.025Z,18.82
2019-06-01T06:13:32.883Z,19.40
2019-06-01T06:16:04.412Z,15.18
2019-06-01T06:18:35.933Z,13.25
2019-06-01T06:21:07.481Z,17.42
2019-06-01T06:23:38.999Z,16.23
2019-06-01T06:26:11.893Z,14.43
2019-06-01T06:28:43.414Z,13.62
2019-06-01T06:31:15.328Z,14.25
2019-06-01T06:33:56.639Z,13.22
2019-06-01T06:36:26.113Z,9.65
2019-06-01T06:38:57.657Z,12.85
2019-06-01T06:41:29.095Z,12.65
2019-06-01T06:44:00.998Z,12.47
2019-06-01T06:46:34.378Z,15.45
2019-06-01T06:49:05.793Z,12.95
2019-06-01T06:51:37.137Z,12.95
2019-06-01T06:54:08.643Z,12.63
2019-06-01T06:56:40.087Z,15.40
2019-06-01T06:59:11.850Z,15.90
2019-06-01T07:01:43.680Z,14.38
2019-06-01T07:04:15.054Z,15.55
2019-06-01T07:06:48.878Z,13.72
2019-06-01T07:09:20.287Z,11.05
2019-06-01T07:11:52.007Z,15.00
2019-06-01T07:14:23.566Z,13.88
2019-06-01T07:16:55.890Z,12.82
2019-06-01T07:19:28.425Z,9.80
2019-06-01T07:21:59.922Z,6.47
2019-06-01T07:24:32.149Z,9.05
2019-06-01T07:27:04.634Z,12.43
2019-06-01T07:29:36.117Z,14.45
2019-06-01T07:32:07.664Z,14.70
2019-06-01T07:34:53.069Z,12.73
2019-06-01T07:37:24.825Z,12.65
2019-06-01T07:39:56.865Z,11.10
2019-06-01T07:42:29.526Z,9.15
2019-06-01T07:45:01.194Z,7.80
2019-06-01T07:47:33.988Z,10.23
2019-06-01T07:50:06.514Z,9.48
2019-06-01T07:52:40.135Z,10.08
2019-06-01T07:55:12.157Z,10.82
2019-06-01T07:57:44.333Z,9.43
2019-06-01T08:00:17.815Z,6.67
2019-06-01T08:02:49.249Z,8.60
2019-06-01T08:05:23.291Z,8.60
2019-06-01T08:07:54.353Z,8.45
2019-06-01T08:10:29.624Z,7.70
2019-06-01T08:13:01.944Z,9.88
2019-06-01T08:15:33.277Z,7.42
2019-06-01T08:18:05.187Z,6.80
2019-06-01T08:20:36.542Z,7.60
2019-06-01T08:23:07.914Z,9.08
2019-06-01T08:25:39.440Z,7.45
2019-06-01T08:28:10.920Z,5.75
2019-06-01T08:30:42.567Z,5.45
2019-06-01T08:33:14.101Z,5.60
2019-06-01T08:35:54.910Z,3.92
2019-06-01T08:38:27.480Z,5.45
2019-06-01T08:41:00.043Z,4.60
2019-06-01T08:43:31.850Z,4.95
2019-06-01T08:46:03.456Z,3.52
2019-06-01T08:48:34.947Z,6.05
2019-06-01T08:51:06.372Z,4.03
2019-06-01T08:53:40.772Z,4.97
2019-06-01T08:56:12.949Z,5.67
2019-06-01T08:58:45.051Z,4.90
2019-06-01T09:01:19.605Z,3.98
2019-06-01T09:04:09.572Z,4.90
2019-06-01T09:06:42.191Z,5.17
2019-06-01T09:09:14.729Z,5.22
2019-06-01T09:11:46.169Z,3.65
2019-06-01T09:14:17.555Z,3.45
2019-06-01T09:16:49.131Z,5.35
2019-06-01T09:19:20.556Z,5.30
2019-06-01T09:21:52.186Z,5.83
2019-06-01T09:24:23.886Z,7.35
2019-06-01T09:26:55.805Z,4.97
2019-06-01T09:29:27.839Z,7.40
2019-06-01T09:31:59.649Z,7.85
2019-06-01T09:34:32.442Z,6.17
2019-06-01T09:37:04.472Z,7.35
2019-06-01T09:39:37.310Z,5.25
2019-06-01T09:42:09.347Z,5.72
2019-06-01T09:44:40.881Z,5.85
2019-06-01T09:47:12.504Z,6.03
2019-06-01T09:49:44.355Z,5.85
2019-06-01T09:52:16.685Z,6.65
2019-06-01T09:54:48.523Z,4.03
2019-06-01T09:57:19.864Z,4.40
2019-06-01T09:59:51.285Z,6.87
2019-06-01T10:02:22.928Z,5.62
2019-06-01T10:04:54.766Z,4.83
2019-06-01T10:07:29.197Z,3.27
2019-06-01T10:10:00.828Z,5.25
2019-06-01T10:12:32.541Z,5.17
2019-06-01T10:15:04.344Z,4.75
2019-06-01T10:17:38.886Z,5.65
2019-06-01T10:20:14.433Z,7.35
2019-06-01T10:22:46.269Z,4.42
2019-06-01T10:25:21.028Z,4.45
2019-06-01T10:27:52.642Z,4.42
2019-06-01T10:30:24.292Z,6.25
2019-06-01T10:32:56.287Z,4.05
2019-06-01T10:35:28.123Z,5.95
2019-06-01T10:38:01.913Z,6.33
2019-06-01T10:40:33.523Z,8.38
2019-06-01T10:43:05.603Z,6.53
2019-06-01T10:45:37.804Z,4.75
2019-06-01T10:48:09.535Z,5.17
2019-06-01T10:50:42.997Z,7.97
2019-06-01T10:53:14.675Z,6.12
2019-06-01T10:55:47.508Z,7.92
2019-06-01T10:58:21.415Z,4.75
2019-06-01T11:00:53.019Z,9.35
2019-06-01T11:03:25.751Z,8.83
2019-06-01T11:05:57.436Z,9.38
2019-06-01T11:08:30.237Z,9.25
2019-06-01T11:11:03.443Z,9.80
2019-06-01T11:13:37.087Z,12.07
2019-06-01T11:16:12.864Z,7.92
2019-06-01T11:18:45.105Z,10.75
2019-06-01T11:21:16.595Z,9.23
2019-06-01T11:23:49.742Z,9.70
2019-06-01T11:26:23.696Z,11.33
2019-06-01T11:28:55.573Z,9.80
2019-06-01T11:31:27.488Z,9.20
2019-06-01T11:33:59.454Z,9.93
2019-06-01T11:36:34.237Z,12.80
2019-06-01T11:39:08.181Z,7.30
2019-06-01T11:41:40.964Z,9.30
2019-06-01T11:44:12.415Z,7.05
2019-06-01T11:46:45.324Z,8.55
2019-06-01T11:49:21.164Z,7.30
2019-06-01T11:51:53.340Z,7.47
2019-06-01T11:54:26.012Z,8.35
2019-06-01T11:56:58.724Z,8.08
2019-06-01T11:59:30.812Z,7.95
2019-06-01T12:02:02.751Z,9.25
2019-06-01T12:04:34.077Z,8.25
2019-06-01T12:07:17.150Z,8.40
2019-06-01T12:09:39.950Z,10.00
2019-06-01T12:12:10.678Z,8.75
2019-06-01T12:14:42.664Z,8.33
2019-06-01T12:17:15.377Z,11.35
2019-06-01T12:19:47.508Z,9.70
2019-06-01T12:22:22.267Z,8.23
2019-06-01T12:24:53.756Z,13.62
2019-06-01T12:27:25.196Z,10.80
2019-06-01T12:29:56.853Z,7.72
2019-06-01T12:32:32.051Z,7.65
2019-06-01T12:35:03.812Z,10.40
2019-06-01T12:37:54.905Z,8.18
2019-06-01T12:40:09.191Z,9.18
2019-06-01T12:42:41.534Z,10.98
2019-06-01T12:45:22.710Z,13.43
2019-06-01T12:47:55.170Z,12.53
2019-06-01T12:50:25.346Z,8.93
2019-06-01T12:52:56.825Z,9.05
2019-06-01T12:55:28.302Z,12.33
2019-06-01T12:58:00.565Z,8.33
2019-06-01T13:00:32.004Z,10.15
2019-06-01T13:03:07.749Z,9.10
2019-06-01T13:05:36.717Z,11.93
2019-06-01T13:08:08.035Z,9.10
2019-06-01T13:10:39.479Z,10.80
2019-06-01T13:13:11.469Z,9.85
2019-06-01T13:15:43.719Z,8.23
2019-06-01T13:18:15.213Z,10.18
2019-06-01T13:20:47.643Z,7.33
2019-06-01T13:23:19.599Z,10.58
2019-06-01T13:25:51.896Z,9.10
2019-06-01T13:28:37.316Z,8.23
2019-06-01T13:30:56.418Z,9.93
2019-06-01T13:33:28.832Z,4.08
2019-06-01T13:36:00.351Z,9.70
2019-06-01T13:38:31.923Z,8.65
2019-06-01T13:41:03.408Z,8.25
2019-06-01T13:43:35.028Z,6.72
2019-06-01T13:46:06.882Z,8.35
2019-06-01T13:48:38.427Z,7.78
2019-06-01T13:51:09.877Z,8.08
2019-06-01T13:53:41.280Z,5.55
2019-06-01T13:56:12.774Z,6.87
2019-06-01T13:58:44.587Z,4.97
2019-06-01T14:01:16.151Z,6.55
2019-06-01T14:03:47.535Z,6.87
2019-06-01T14:06:19.015Z,9.63
2019-06-01T14:08:51.109Z,6.58
2019-06-01T14:11:22.630Z,8.08
2019-06-01T14:13:54.278Z,6.62
2019-06-01T14:16:26.367Z,6.95
2019-06-01T14:18:57.764Z,7.37
2019-06-01T14:21:29.235Z,2.42
2019-06-01T14:24:03.135Z,6.75
2019-06-01T14:26:34.583Z,7.05
2019-06-01T14:29:07.744Z,6.95
2019-06-01T14:31:39.131Z,6.15
2019-06-01T14:34:10.898Z,4.62
2019-06-01T14:36:43.554Z,5.75
2019-06-01T14:39:14.907Z,5.35
2019-06-01T14:41:46.720Z,4.67
2019-06-01T14:44:19.353Z,8.15
2019-06-01T14:47:01.336Z,4.12
2019-06-01T14:49:24.070Z,4.62
2019-06-01T14:51:57.871Z,4.30
2019-06-01T14:54:30.764Z,4.80
2019-06-01T14:57:05.208Z,4.03
2019-06-01T14:59:38.389Z,4.72
2019-06-01T15:02:13.553Z,4.70
2019-06-01T15:04:45.026Z,6.55
2019-06-01T15:07:16.934Z,4.47
2019-06-01T15:09:48.698Z,4.00
2019-06-01T15:12:20.050Z,3.52
2019-06-01T15:14:51.470Z,6.58
2019-06-01T15:17:23.253Z,5.75
2019-06-01T15:19:56.075Z,5.85
2019-06-01T15:22:27.688Z,6.12
2019-06-01T15:24:59.252Z,5.65
2019-06-01T15:27:30.671Z,5.15
2019-06-01T15:30:03.279Z,4.25
2019-06-01T15:32:34.974Z,6.05
2019-06-01T15:35:08.502Z,4.10
2019-06-01T15:37:39.839Z,6.05
2019-06-01T15:40:13.377Z,4.83
2019-06-01T15:42:44.872Z,4.72
2019-06-01T15:45:16.833Z,2.27
2019-06-01T15:47:48.889Z,2.52
2019-06-01T15:50:20.322Z,3.42
2019-06-01T15:52:52.984Z,3.22
2019-06-01T15:55:24.546Z,3.62
2019-06-01T15:57:56.555Z,6.40
2019-06-01T16:00:28.129Z,3.50
2019-06-01T16:03:01.040Z,3.45
2019-06-01T16:05:32.817Z,3.35
2019-06-01T16:08:05.569Z,2.40
2019-06-01T16:10:37.329Z,2.27
2019-06-01T16:13:08.778Z,3.00
2019-06-01T16:15:40.296Z,2.45
2019-06-01T16:18:12.175Z,2.85
2019-06-01T16:20:43.651Z,3.08
2019-06-01T16:23:16.743Z,3.00
2019-06-01T16:26:01.216Z,2.30
2019-06-01T16:28:22.494Z,4.35
2019-06-01T16:30:54.353Z,2.65
2019-06-01T16:33:25.956Z,2.72
2019-06-01T16:35:58.889Z,1.80
2019-06-01T16:38:31.941Z,2.15
2019-06-01T16:41:05.553Z,3.87
2019-06-01T16:43:38.654Z,4.83
2019-06-01T16:46:10.637Z,3.58
2019-06-01T16:48:42.081Z,3.47
2019-06-01T16:51:13.603Z,2.72
2019-06-01T16:53:45.113Z,3.72
2019-06-01T16:56:16.450Z,2.87
2019-06-01T16:58:48.076Z,4.22
2019-06-01T17:01:19.444Z,5.92
2019-06-01T17:03:52.018Z,3.65
2019-06-01T17:06:24.296Z,3.55
2019-06-01T17:08:56.776Z,2.25
2019-06-01T17:11:29.543Z,4.00
2019-06-01T17:14:01.267Z,4.05
2019-06-01T17:16:33.012Z,3.90
2019-06-01T17:19:05.209Z,3.00
2019-06-01T17:21:36.743Z,3.17
2019-06-01T17:24:08.322Z,3.58
2019-06-01T17:26:39.972Z,4.28
2019-06-01T17:29:11.371Z,4.10
2019-06-01T17:31:54.093Z,1.72
2019-06-01T17:34:15.882Z,4.12
2019-06-01T17:36:47.731Z,2.40
2019-06-01T17:39:19.795Z,2.10
2019-06-01T17:41:51.262Z,2.92
2019-06-01T17:44:22.893Z,3.22
2019-06-01T17:46:54.392Z,2.35
2019-06-01T17:49:26.952Z,3.55
2019-06-01T17:51:58.318Z,2.50
2019-06-01T17:54:29.872Z,3.15
2019-06-01T17:57:03.095Z,1.98
2019-06-01T17:59:34.674Z,2.67
2019-06-01T18:02:06.229Z,4.33
2019-06-01T18:04:37.699Z,5.12
2019-06-01T18:07:09.991Z,2.33
2019-06-01T18:09:41.703Z,6.20
2019-06-01T18:12:14.077Z,3.20
2019-06-01T18:14:45.923Z,12.05
2019-06-01T18:17:17.693Z,2.58
2019-06-01T18:19:49.630Z,1.72
2019-06-01T18:22:23.374Z,3.52
2019-06-01T18:24:54.880Z,3.42
2019-06-01T18:27:26.364Z,2.98
2019-06-01T18:29:57.886Z,2.90
2019-06-01T18:32:29.270Z,3.98
2019-06-01T18:35:00.786Z,3.80
2019-06-01T18:37:34.916Z,4.30
2019-06-01T18:40:07.710Z,4.30
2019-06-01T18:42:43.706Z,4.03
2019-06-01T18:45:15.721Z,4.67
2019-06-01T18:47:48.022Z,2.95
2019-06-01T18:50:19.951Z,6.17
2019-06-01T18:52:51.544Z,5.47
2019-06-01T18:55:27.211Z,5.03
2019-06-01T18:57:59.736Z,4.15
2019-06-01T19:00:31.275Z,3.92
2019-06-01T19:03:02.753Z,3.60
2019-06-01T19:05:34.190Z,33.58
2019-06-01T19:08:07.024Z,2.90
2019-06-01T19:10:38.695Z,4.22
2019-06-01T19:13:10.173Z,3.05
2019-06-01T19:15:41.981Z,4.08
2019-06-01T19:18:14.606Z,4.17
2019-06-01T19:20:50.217Z,4.83
2019-06-01T19:23:22.968Z,5.60
2019-06-01T19:25:55.177Z,3.65
2019-06-01T19:28:26.658Z,4.37
2019-06-01T19:30:58.095Z,3.25
2019-06-01T19:33:29.544Z,9.10
2019-06-01T19:36:01.513Z,4.75
2019-06-01T19:38:34.351Z,3.62
2019-06-01T19:41:07.404Z,2.67
2019-06-01T19:43:39.003Z,4.10
2019-06-01T19:46:10.318Z,3.55
2019-06-01T19:48:41.710Z,3.83
2019-06-01T19:51:13.092Z,3.17
2019-06-01T19:53:44.732Z,3.98
2019-06-01T19:56:17.055Z,3.67
2019-06-01T19:58:49.642Z,4.50
2019-06-01T20:01:23.814Z,5.78
2019-06-01T20:03:55.258Z,3.45
2019-06-01T20:06:26.658Z,5.47
2019-06-01T20:09:00.333Z,4.15
2019-06-01T20:11:31.995Z,5.17
2019-06-01T20:14:03.420Z,5.65
2019-06-01T20:16:34.883Z,4.60
2019-06-01T20:19:06.318Z,4.37
2019-06-01T20:21:37.809Z,6.62
2019-06-01T20:24:09.302Z,4.87
2019-06-01T20:26:48.765Z,6.62
2019-06-01T20:29:14.040Z,5.92
2019-06-01T20:31:46.539Z,7.97
2019-06-01T20:34:18.083Z,6.30
2019-06-01T20:36:49.625Z,5.22
2019-06-01T20:39:22.331Z,5.17
2019-06-01T20:41:54.058Z,6.58
2019-06-01T20:44:25.616Z,8.60
2019-06-01T20:46:57.254Z,5.35
2019-06-01T20:49:28.854Z,5.92
2019-06-01T20:52:01.893Z,5.95
2019-06-01T20:54:33.362Z,5.75
2019-06-01T20:57:05.840Z,7.62
2019-06-01T20:59:37.209Z,5.30
2019-06-01T21:02:08.710Z,4.25
2019-06-01T21:04:40.202Z,5.33
2019-06-01T21:07:11.955Z,9.80
2019-06-01T21:09:43.733Z,6.37
2019-06-01T21:12:18.340Z,7.95
2019-06-01T21:14:49.959Z,7.75
2019-06-01T21:17:22.675Z,5.03
2019-06-01T21:19:54.407Z,5.60
2019-06-01T21:22:26.437Z,8.53
2019-06-01T21:24:57.874Z,8.28
2019-06-01T21:27:29.393Z,7.40
2019-06-01T21:30:01.787Z,6.40
2019-06-01T21:32:33.331Z,6.67
2019-06-01T21:35:07.857Z,6.62
2019-06-01T21:37:42.087Z,7.17
2019-06-01T21:40:13.754Z,10.43
2019-06-01T21:43:00.363Z,6.67
2019-06-01T21:45:19.685Z,7.83
2019-06-01T21:47:51.265Z,6.22
2019-06-01T21:50:25.972Z,6.08
2019-06-01T21:52:58.589Z,8.60
2019-06-01T21:55:30.207Z,17.27
2019-06-01T21:58:01.906Z,7.87
2019-06-01T22:00:37.272Z,6.97
2019-06-01T22:03:09.550Z,10.95
2019-06-01T22:05:40.994Z,12.65
2019-06-01T22:08:12.476Z,15.93
2019-06-01T22:10:45.426Z,6.50
2019-06-01T22:13:21.971Z,10.25
2019-06-01T22:15:51.641Z,9.70
2019-06-01T22:18:23.787Z,9.45
2019-06-01T22:20:55.260Z,7.97
2019-06-01T22:23:28.041Z,9.03
2019-06-01T22:25:59.686Z,9.18
2019-06-01T22:28:31.973Z,8.65
2019-06-01T22:31:03.563Z,8.65
2019-06-01T22:33:35.100Z,7.42
2019-06-01T22:36:06.582Z,9.73
2019-06-01T22:38:38.465Z,10.00
2019-06-01T22:41:10.620Z,10.30
2019-06-01T22:43:46.422Z,11.50
2019-06-01T22:47:54.557Z,8.48
2019-06-01T22:50:27.039Z,8.68
2019-06-01T22:52:58.432Z,11.93
2019-06-01T22:55:29.807Z,11.18
2019-06-01T22:58:01.696Z,9.05
2019-06-01T23:00:33.184Z,10.53
2019-06-01T23:03:05.854Z,7.75
2019-06-01T23:05:37.320Z,10.18
2019-06-01T23:08:08.654Z,9.08
2019-06-01T23:10:41.259Z,8.40
2019-06-01T23:13:13.143Z,11.97
2019-06-01T23:15:45.043Z,10.25
2019-06-01T23:18:16.422Z,9.63
2019-06-01T23:20:48.637Z,8.30
2019-06-01T23:23:20.032Z,9.90
2019-06-01T23:25:51.374Z,11.78
2019-06-01T23:28:24.040Z,18.85
2019-06-01T23:30:56.821Z,10.58
2019-06-01T23:33:28.858Z,9.53
2019-06-01T23:36:00.463Z,9.28
2019-06-01T23:38:32.790Z,14.28
2019-06-01T23:41:04.481Z,8.78
2019-06-01T23:43:35.922Z,8.58
2019-06-01T23:46:07.298Z,9.18
2019-06-01T23:48:39.220Z,7.92
2019-06-01T23:51:12.593Z,9.85
2019-06-01T23:53:44.064Z,9.08
2019-06-01T23:56:15.485Z,8.38
2019-06-01T23:58:46.867Z,9.08
